Time;durP1;ratioP1;P1;durP2;ratioP2;P2;SDS_P1;SDS_P2;PMS_P1;PMS_P2;Temp;Humidity;BMP_temperature;BMP_pressure;BME280_temperature;BME280_humidity;BME280_pressure;Samples;Min_cycle;Max_cycle;Signal;HPM_P1;HPM_P2
2021/07/01 00:00:50;;;;;;;7.68;6.32;;;;;;;17.85;75.22;100844.56;6205660;28;20456;-53
2021/07/01 00:04:12;;;;;;;6.38;5.80;;;;;;;18.05;74.86;100843.78;6204883;28;20245;-53
2021/07/01 00:07:32;;;;;;;7.13;6.53;;;;;;;17.66;75.91;100839.13;6210506;28;20229;-51
2021/07/01 00:10:54;;;;;;;4.93;4.53;;;;;;;18.06;74.12;100834.09;6204509;28;20655;-51
2021/07/01 00:14:18;;;;;;;6.20;5.70;;;;;;;18.21;74.03;100836.13;6213669;28;20317;-47
2021/07/01 00:17:41;;;;;;;5.60;5.22;;;;;;;17.96;74.18;100832.75;6192436;28;20644;-50
2021/07/01 00:21:02;;;;;;;5.28;4.78;;;;;;;17.93;74.24;100838.13;6197054;28;20570;-49
2021/07/01 00:24:23;;;;;;;4.82;4.45;;;;;;;17.60;75.98;100833.22;6209102;28;20296;-49
2021/07/01 00:27:45;;;;;;;4.32;4.03;;;;;;;17.87;75.54;100833.97;6211236;28;20252;-49
2021/07/01 00:31:07;;;;;;;6.00;5.55;;;;;;;17.87;74.98;100831.34;6202889;28;20229;-52
2021/07/01 00:34:29;;;;;;;5.03;4.55;;;;;;;17.95;75.01;100833.66;6205787;28;20577;-50
2021/07/01 00:37:50;;;;;;;5.07;4.63;;;;;;;18.09;74.23;100821.66;6209064;28;20228;-51
2021/07/01 00:41:11;;;;;;;4.95;4.45;;;;;;;17.92;74.78;100833.81;6209813;28;20613;-48
2021/07/01 00:44:32;;;;;;;5.68;5.15;;;;;;;18.15;73.92;100825.00;6211359;28;20225;-50
2021/07/01 00:47:53;;;;;;;7.32;6.63;;;;;;;18.00;74.17;100814.13;6199282;28;20226;-52
2021/07/01 00:51:17;;;;;;;6.07;5.53;;;;;;;18.06;73.83;100818.28;6197977;28;20233;-51
2021/07/01 00:54:38;;;;;;;5.53;4.95;;;;;;;17.84;74.23;100820.94;6193225;28;20241;-49
2021/07/01 00:57:59;;;;;;;5.97;5.32;;;;;;;17.70;74.78;100808.28;6192723;28;20837;-52
2021/07/01 01:01:21;;;;;;;6.27;5.67;;;;;;;17.99;74.22;100812.44;6184681;28;20224;-55
2021/07/01 01:04:42;;;;;;;6.65;6.13;;;;;;;17.72;75.03;100819.59;6221296;28;20229;-53
2021/07/01 01:08:05;;;;;;;7.18;6.57;;;;;;;17.64;75.66;100816.38;6226253;28;20232;-50
2021/07/01 01:11:27;;;;;;;8.60;7.57;;;;;;;17.77;75.24;100815.00;6206866;28;20241;-50
2021/07/01 01:15:00;;;;;;;7.47;6.78;;;;;;;17.77;75.20;100814.16;6213099;28;20232;-51
2021/07/01 01:18:21;;;;;;;8.38;7.55;;;;;;;17.87;74.94;100810.25;6230410;28;20233;-50
2021/07/01 01:21:47;;;;;;;9.47;8.37;;;;;;;17.89;74.42;100818.97;6210722;28;20257;-48
2021/07/01 01:25:10;;;;;;;9.10;8.32;;;;;;;17.73;75.25;100808.13;6220910;28;20234;-49
2021/07/01 01:28:31;;;;;;;10.70;9.60;;;;;;;17.59;75.61;100800.78;6219418;28;20639;-51
2021/07/01 01:31:53;;;;;;;10.70;9.60;;;;;;;17.39;77.08;100800.66;6218098;28;20228;-50
2021/07/01 01:35:14;;;;;;;12.20;11.00;;;;;;;17.37;76.45;100794.59;6231718;28;20233;-51
2021/07/01 01:38:36;;;;;;;11.03;9.97;;;;;;;17.55;76.33;100790.44;6185285;28;20237;-49
2021/07/01 01:42:18;;;;;;;10.73;9.67;;;;;;;17.68;75.43;100794.28;6211194;28;20233;-52
2021/07/01 01:45:40;;;;;;;12.87;11.00;;;;;;;17.35;76.78;100792.06;6236271;28;20759;-52
2021/07/01 01:49:02;;;;;;;11.53;10.43;;;;;;;17.68;75.78;100802.19;6219723;28;20233;-52
2021/07/01 01:52:23;;;;;;;12.70;10.57;;;;;;;17.73;75.22;100783.59;6210938;28;20232;-49
2021/07/01 01:55:45;;;;;;;11.88;10.57;;;;;;;16.94;78.91;100786.50;6212603;28;20221;-51
2021/07/01 01:59:08;;;;;;;11.77;10.67;;;;;;;17.55;76.90;100787.81;6209511;28;20823;-53
2021/07/01 02:02:48;;;;;;;13.57;12.17;;;;;;;17.42;76.47;100776.88;6197698;28;20242;-50
2021/07/01 02:06:23;;;;;;;16.70;12.97;;;;;;;17.20;77.80;100779.47;6201521;28;20229;-54
2021/07/01 02:09:43;;;;;;;12.90;11.48;;;;;;;17.27;77.47;100773.91;6219513;28;20657;-53
2021/07/01 02:13:10;;;;;;;12.10;10.90;;;;;;;17.68;75.99;100779.34;6223116;28;20610;-51
2021/07/01 02:16:34;;;;;;;12.43;10.90;;;;;;;17.71;76.11;100768.69;6203631;28;20230;-53
2021/07/01 02:19:55;;;;;;;12.10;11.10;;;;;;;17.58;76.41;100777.13;6206524;28;20264;-53
2021/07/01 02:23:17;;;;;;;12.13;10.93;;;;;;;17.82;75.88;100773.53;6222695;28;20233;-54
2021/07/01 02:26:38;;;;;;;13.00;11.68;;;;;;;17.82;76.31;100778.81;6209851;28;20245;-50
2021/07/01 02:30:01;;;;;;;11.90;10.75;;;;;;;17.81;75.60;100784.97;6221686;28;20278;-53
2021/07/01 02:33:30;;;;;;;12.45;10.93;;;;;;;18.07;75.31;100783.13;6215580;28;20306;-54
2021/07/01 02:36:51;;;;;;;13.40;11.90;;;;;;;17.80;76.00;100783.28;6214499;28;20240;-51
2021/07/01 02:40:41;;;;;;;11.75;10.55;;;;;;;17.93;75.53;100791.56;6213548;28;20232;-53
2021/07/01 02:44:05;;;;;;;12.55;11.32;;;;;;;17.14;77.99;100791.06;6222922;28;20268;-51
2021/07/01 02:47:46;;;;;;;11.87;10.67;;;;;;;17.33;77.82;100793.84;6187698;28;20229;-53
2021/07/01 02:51:07;;;;;;;11.37;10.37;;;;;;;17.69;76.38;100785.47;6212810;28;20236;-50
2021/07/01 02:54:40;;;;;;;12.00;10.88;;;;;;;17.81;75.67;100777.06;6224862;28;20291;-52
2021/07/01 02:58:02;;;;;;;12.47;11.37;;;;;;;17.94;75.24;100785.41;6231284;28;20232;-54
2021/07/01 03:01:24;;;;;;;14.90;13.50;;;;;;;17.50;76.94;100787.97;6221097;28;20824;-51
2021/07/01 03:04:46;;;;;;;14.33;12.87;;;;;;;17.62;75.93;100789.25;6218928;28;20327;-47
2021/07/01 03:08:07;;;;;;;14.17;12.67;;;;;;;17.70;75.85;100779.31;6213262;28;20324;-49
2021/07/01 03:11:37;;;;;;;15.87;14.37;;;;;;;17.78;75.78;100779.84;6194494;28;20232;-51
2021/07/01 03:14:58;;;;;;;14.90;13.60;;;;;;;17.55;76.70;100779.91;6215476;28;20229;-51
2021/07/01 03:18:19;;;;;;;16.50;14.93;;;;;;;17.75;76.10;100774.69;6206516;28;20278;-52
2021/07/01 03:22:05;;;;;;;15.27;13.73;;;;;;;17.90;75.07;100781.16;6189719;28;20659;-51
2021/07/01 03:25:28;;;;;;;12.97;11.63;;;;;;;17.94;74.78;100782.75;6209407;28;20232;-51
2021/07/01 03:28:49;;;;;;;12.80;11.45;;;;;;;17.79;75.39;100770.16;6205062;28;20758;-52
2021/07/01 03:32:14;;;;;;;16.37;13.43;;;;;;;17.65;75.98;100781.25;6199613;28;20595;-52
2021/07/01 03:35:35;;;;;;;13.40;12.10;;;;;;;17.42;77.29;100774.25;6209407;28;20796;-47
2021/07/01 03:39:32;;;;;;;14.90;13.43;;;;;;;17.41;77.13;100781.28;6210057;28;20268;-53
2021/07/01 03:43:06;;;;;;;14.30;13.00;;;;;;;17.26;78.33;100782.72;6206792;28;20241;-55
2021/07/01 03:46:33;;;;;;;13.80;12.52;;;;;;;17.21;78.32;100773.28;6208307;28;20233;-52
2021/07/01 03:49:53;;;;;;;13.65;12.35;;;;;;;17.20;78.38;100771.56;6195731;28;20347;-50
2021/07/01 03:53:33;;;;;;;16.90;15.30;;;;;;;16.95;80.07;100767.19;6202743;28;20252;-46
2021/07/01 03:56:57;;;;;;;14.32;12.95;;;;;;;16.87;80.30;100774.53;6207935;28;20234;-50
2021/07/01 04:00:27;;;;;;;13.20;12.18;;;;;;;16.97;78.81;100770.63;6211493;28;20812;-56
2021/07/01 04:03:52;;;;;;;13.75;12.38;;;;;;;17.20;77.95;100776.84;6211518;28;20233;-52
2021/07/01 04:07:13;;;;;;;11.30;10.27;;;;;;;17.45;76.93;100771.50;6208808;28;20225;-50
2021/07/01 04:10:36;;;;;;;9.95;8.93;;;;;;;17.50;75.86;100778.28;6211744;28;20507;-49
2021/07/01 04:14:06;;;;;;;9.98;8.95;;;;;;;16.90;78.10;100774.38;6212070;28;20236;-50
2021/07/01 04:17:45;;;;;;;9.57;8.57;;;;;;;17.05;77.82;100775.63;6217324;28;20239;-47
2021/07/01 04:21:44;;;;;;;7.80;7.10;;;;;;;17.16;76.72;100770.81;6137438;28;20259;-53
2021/07/01 04:25:23;;;;;;;6.93;6.43;;;;;;;17.06;77.55;100764.16;6146185;28;20268;-53
2021/07/01 04:28:46;;;;;;;7.73;6.97;;;;;;;17.24;77.15;100774.03;6189683;28;20248;-51
2021/07/01 04:32:09;;;;;;;7.83;7.23;;;;;;;17.18;77.52;100768.13;6208252;28;20245;-51
2021/07/01 04:35:30;;;;;;;6.87;6.37;;;;;;;17.29;76.48;100773.84;6207884;28;20233;-52
2021/07/01 04:38:51;;;;;;;7.07;6.47;;;;;;;17.51;76.37;100769.47;6201833;28;20229;-52
2021/07/01 04:42:16;;;;;;;7.27;6.17;;;;;;;17.71;75.27;100773.09;6224455;28;20685;-51
2021/07/01 04:45:37;;;;;;;7.00;6.50;;;;;;;17.18;77.09;100773.41;6203096;28;20254;-50
2021/07/01 04:49:00;;;;;;;6.90;6.30;;;;;;;17.48;75.83;100777.47;6212666;28;20225;-50
2021/07/01 04:52:22;;;;;;;6.85;6.20;;;;;;;17.30;76.45;100778.19;6210620;28;20237;-51
2021/07/01 04:56:18;;;;;;;6.30;5.80;;;;;;;17.27;75.98;100784.44;6153251;28;20845;-49
2021/07/01 04:59:49;;;;;;;5.70;5.20;;;;;;;16.99;77.13;100792.47;6200798;28;20224;-51
2021/07/01 05:03:16;;;;;;;6.83;6.33;;;;;;;16.84;78.48;100785.13;6204922;28;20216;-54
2021/07/01 05:06:41;;;;;;;5.17;4.77;;;;;;;16.69;79.60;100787.38;6203367;28;20237;-52
2021/07/01 05:10:02;;;;;;;6.93;6.00;;;;;;;17.03;78.29;100791.44;6187007;28;20268;-51
2021/07/01 05:13:58;;;;;;;5.70;4.67;;;;;;;16.73;78.89;100790.75;6194840;28;20258;-49
2021/07/01 05:17:20;;;;;;;4.77;4.40;;;;;;;17.44;76.41;100791.69;6220838;28;20915;-52
2021/07/01 05:20:42;;;;;;;6.23;4.50;;;;;;;17.47;76.20;100786.31;6208229;28;20336;-50
2021/07/01 05:24:23;;;;;;;4.80;4.40;;;;;;;17.55;76.27;100786.00;6212374;28;20225;-52
2021/07/01 05:28:09;;;;;;;4.60;4.20;;;;;;;17.59;75.79;100794.66;6211944;28;20229;-52
2021/07/01 05:31:50;;;;;;;4.67;4.27;;;;;;;17.81;75.05;100790.25;6211386;28;20241;-50
2021/07/01 05:35:29;;;;;;;9.00;4.40;;;;;;;17.77;75.54;100800.97;6212119;28;20229;-50
2021/07/01 05:38:52;;;;;;;9.00;8.27;;;;;;;17.95;75.16;100786.25;6218177;28;20249;-52
2021/07/01 05:42:19;;;;;;;7.23;6.73;;;;;;;17.82;75.34;100791.97;6206991;28;20347;-53
2021/07/01 05:45:42;;;;;;;8.60;5.33;;;;;;;17.82;75.38;100801.66;6199396;28;20257;-53
2021/07/01 05:49:03;;;;;;;3.87;3.57;;;;;;;17.81;74.89;100802.56;6189479;28;20229;-53
2021/07/01 05:52:27;;;;;;;3.15;2.88;;;;;;;17.97;74.32;100806.38;6193621;28;20225;-51
2021/07/01 05:55:47;;;;;;;5.78;5.28;;;;;;;18.04;74.64;100807.81;6189619;28;20237;-53
2021/07/01 05:59:10;;;;;;;3.60;3.30;;;;;;;18.08;74.21;100812.03;6203748;28;20513;-55
2021/07/01 06:02:31;;;;;;;2.50;2.30;;;;;;;18.13;73.25;100819.78;6185090;28;20233;-54
2021/07/01 06:05:57;;;;;;;5.88;5.38;;;;;;;18.28;73.42;100803.34;6204828;28;20229;-52
2021/07/01 06:09:38;;;;;;;4.05;3.42;;;;;;;18.27;74.17;100808.66;6198898;28;20252;-52
2021/07/01 06:13:00;;;;;;;4.25;3.85;;;;;;;18.32;73.56;100811.09;6205740;28;20604;-51
2021/07/01 06:16:25;;;;;;;3.50;3.20;;;;;;;18.61;72.65;100802.84;6213140;28;20229;-47
2021/07/01 06:19:49;;;;;;;3.45;2.60;;;;;;;17.93;74.96;100796.84;6206875;28;20558;-49
2021/07/01 06:23:12;;;;;;;3.47;3.00;;;;;;;17.76;76.27;100797.50;6200944;28;20237;-51
2021/07/01 06:26:35;;;;;;;3.33;3.05;;;;;;;18.22;74.84;100793.03;6207242;28;20603;-53
2021/07/01 06:29:56;;;;;;;2.13;2.03;;;;;;;18.47;72.73;100803.41;6208323;28;20324;-54
2021/07/01 06:33:20;;;;;;;3.60;2.40;;;;;;;18.45;72.95;100809.66;6189016;28;20667;-52
2021/07/01 06:36:42;;;;;;;2.35;2.15;;;;;;;18.86;71.86;100805.31;6194126;28;20336;-50
2021/07/01 06:40:31;;;;;;;2.72;2.53;;;;;;;18.81;72.52;100806.44;6194798;28;20252;-51
2021/07/01 06:44:13;;;;;;;1.90;1.80;;;;;;;18.40;73.62;100809.03;6207901;28;20241;-49
2021/07/01 06:48:00;;;;;;;2.03;1.90;;;;;;;18.82;73.49;100808.97;6197382;28;20319;-49
2021/07/01 06:51:42;;;;;;;2.20;1.98;;;;;;;19.26;71.41;100806.16;6204942;28;20229;-49
2021/07/01 06:55:22;;;;;;;2.55;1.98;;;;;;;19.20;71.14;100816.13;6189931;28;20225;-52
2021/07/01 06:58:57;;;;;;;2.50;2.33;;;;;;;19.07;71.68;100813.19;6196081;28;20233;-50
2021/07/01 07:02:19;;;;;;;3.20;2.95;;;;;;;18.92;72.60;100820.00;6207464;28;20308;-51
2021/07/01 07:05:41;;;;;;;3.63;2.72;;;;;;;19.11;71.89;100827.09;6199537;28;20233;-49
2021/07/01 07:09:04;;;;;;;2.60;1.98;;;;;;;19.11;71.84;100822.66;6211939;28;20646;-54
2021/07/01 07:12:25;;;;;;;2.23;2.13;;;;;;;19.08;71.79;100825.47;6203778;28;20236;-52
2021/07/01 07:15:48;;;;;;;2.20;2.10;;;;;;;19.35;70.52;100825.13;6204754;28;20798;-54
2021/07/01 07:19:10;;;;;;;2.60;2.40;;;;;;;19.33;71.26;100832.25;6198410;28;20229;-51
2021/07/01 07:22:37;;;;;;;4.53;3.75;;;;;;;19.45;70.81;100829.94;6197851;28;20229;-54
2021/07/01 07:26:07;;;;;;;2.55;2.35;;;;;;;19.28;71.23;100835.13;6209377;28;20232;-48
2021/07/01 07:29:31;;;;;;;3.45;2.92;;;;;;;19.43;70.78;100837.06;6202827;28;20232;-49
2021/07/01 07:32:54;;;;;;;8.05;7.40;;;;;;;19.43;71.01;100837.06;6206201;28;20365;-50
2021/07/01 07:36:19;;;;;;;5.90;5.40;;;;;;;19.40;71.61;100831.91;6210142;28;20229;-50
2021/07/01 07:39:41;;;;;;;7.78;7.05;;;;;;;19.71;70.70;100832.28;6207991;28;20497;-51
2021/07/01 07:43:04;;;;;;;3.63;3.33;;;;;;;19.78;70.25;100833.75;6205498;28;20237;-52
2021/07/01 07:46:28;;;;;;;4.28;2.90;;;;;;;19.72;70.43;100834.06;6206932;28;20301;-50
2021/07/01 07:49:49;;;;;;;6.38;5.93;;;;;;;19.57;71.69;100833.78;6197389;28;21635;-51
2021/07/01 07:53:17;;;;;;;9.68;8.77;;;;;;;19.93;70.82;100832.16;6193807;28;20614;-50
2021/07/01 07:56:38;;;;;;;3.50;3.20;;;;;;;19.77;71.28;100830.25;6212002;28;20228;-51
2021/07/01 08:00:01;;;;;;;3.88;3.05;;;;;;;19.83;71.43;100829.97;6207361;28;20228;-50
2021/07/01 08:03:22;;;;;;;4.28;3.95;;;;;;;19.94;70.98;100832.09;6207342;28;20607;-51
2021/07/01 08:06:45;;;;;;;4.35;3.60;;;;;;;20.19;69.79;100834.41;6208524;28;20347;-52
2021/07/01 08:10:09;;;;;;;3.83;2.97;;;;;;;20.16;69.47;100829.28;6201398;28;20332;-54
2021/07/01 08:13:32;;;;;;;3.70;3.40;;;;;;;20.73;67.79;100833.53;6185625;28;20230;-52
2021/07/01 08:16:55;;;;;;;3.78;3.47;;;;;;;20.69;68.32;100843.44;6199748;28;20233;-51
2021/07/01 08:20:18;;;;;;;3.88;3.50;;;;;;;20.64;68.55;100842.78;6205649;28;20248;-53
2021/07/01 08:23:41;;;;;;;3.88;3.53;;;;;;;20.53;69.07;100842.44;6207575;28;20232;-54
2021/07/01 08:27:02;;;;;;;3.90;3.60;;;;;;;20.37;70.44;100847.66;6201496;28;20241;-52
2021/07/01 08:30:25;;;;;;;4.22;3.92;;;;;;;20.32;70.50;100844.41;6207763;28;20218;-48
2021/07/01 08:33:49;;;;;;;4.50;4.10;;;;;;;20.36;70.32;100845.94;6199165;28;20312;-53
2021/07/01 08:37:10;;;;;;;4.25;3.72;;;;;;;20.71;70.13;100848.66;6197565;28;20933;-49
2021/07/01 08:40:33;;;;;;;5.43;5.03;;;;;;;20.56;70.71;100851.09;6194043;28;20229;-63
2021/07/01 08:43:57;;;;;;;4.22;3.90;;;;;;;20.61;70.19;100849.09;6203172;28;20241;-65
2021/07/01 08:47:20;;;;;;;5.32;4.75;;;;;;;20.23;71.85;100849.19;6212126;28;20225;-62
2021/07/01 08:50:51;;;;;;;5.78;5.32;;;;;;;20.23;72.34;100853.63;6211317;28;20249;-62
2021/07/01 08:54:23;;;;;;;5.22;4.82;;;;;;;20.32;71.08;100860.25;6210696;28;20233;-63
2021/07/01 08:57:49;;;;;;;6.15;5.63;;;;;;;20.59;70.96;100852.75;6212647;28;20497;-61
2021/07/01 09:01:10;;;;;;;5.40;4.95;;;;;;;20.50;70.66;100853.19;6212220;28;20236;-49
2021/07/01 09:04:39;;;;;;;5.72;5.25;;;;;;;20.68;69.96;100856.72;6200479;28;20229;-55
2021/07/01 09:08:08;;;;;;;11.20;10.15;;;;;;;20.61;71.21;100856.19;6212106;28;20221;-52
2021/07/01 09:11:34;;;;;;;8.07;7.47;;;;;;;20.54;71.08;100855.59;6206534;28;20225;-51
2021/07/01 09:14:57;;;;;;;5.78;5.28;;;;;;;20.70;70.79;100854.84;6206275;28;20229;-53
2021/07/01 09:18:21;;;;;;;5.60;5.20;;;;;;;20.84;70.01;100852.38;6203504;28;20359;-53
2021/07/01 09:21:42;;;;;;;6.85;5.47;;;;;;;20.95;69.89;100854.47;6198094;28;20877;-51
2021/07/01 09:25:06;;;;;;;6.53;5.90;;;;;;;21.09;69.13;100865.16;6196259;28;20230;-47
2021/07/01 09:28:27;;;;;;;7.28;6.78;;;;;;;20.97;69.91;100863.16;6202129;28;20217;-51
2021/07/01 09:31:49;;;;;;;6.90;6.38;;;;;;;20.52;71.57;100868.03;6213313;28;20731;-51
2021/07/01 09:35:12;;;;;;;7.43;6.93;;;;;;;20.49;72.70;100868.22;6202598;28;20234;-52
2021/07/01 09:38:34;;;;;;;6.60;6.07;;;;;;;20.90;70.78;100867.94;6210906;28;20224;-48
2021/07/01 09:42:00;;;;;;;7.60;6.55;;;;;;;20.88;71.77;100869.81;6212831;28;20324;-53
2021/07/01 09:45:23;;;;;;;7.25;6.65;;;;;;;20.82;72.56;100875.38;6206280;28;20229;-50
2021/07/01 09:48:48;;;;;;;7.63;6.95;;;;;;;21.22;70.49;100870.69;6202053;28;20233;-50
2021/07/01 09:52:10;;;;;;;7.57;6.90;;;;;;;21.54;69.65;100868.13;6202009;28;20557;-54
2021/07/01 09:55:33;;;;;;;8.38;7.43;;;;;;;21.58;69.80;100859.09;6170041;28;20234;-50
2021/07/01 09:59:00;;;;;;;6.70;5.53;;;;;;;21.90;68.81;100864.41;6192634;28;20497;-50
2021/07/01 10:02:23;;;;;;;6.13;5.70;;;;;;;21.92;68.58;100875.78;6198414;28;20515;-52
2021/07/01 10:05:44;;;;;;;6.43;5.90;;;;;;;21.76;69.09;100873.13;6191495;28;20615;-62
2021/07/01 10:09:07;;;;;;;6.43;5.45;;;;;;;21.89;69.22;100873.28;6195678;28;20225;-63
2021/07/01 10:12:30;;;;;;;7.43;6.82;;;;;;;21.57;70.55;100875.94;6205355;28;20245;-65
2021/07/01 10:15:53;;;;;;;7.30;6.60;;;;;;;22.00;69.23;100873.56;6207540;28;20259;-64
2021/07/01 10:19:21;;;;;;;4.90;4.57;;;;;;;22.63;66.72;100875.31;6203629;28;20229;-62
2021/07/01 10:22:42;;;;;;;6.45;5.95;;;;;;;22.34;67.91;100877.84;6195242;28;20240;-65
2021/07/01 10:26:10;;;;;;;5.75;5.18;;;;;;;23.06;65.30;100882.53;6211062;28;20233;-65
2021/07/01 10:29:37;;;;;;;6.95;6.45;;;;;;;23.17;65.52;100880.09;6197710;28;20245;-64
2021/07/01 10:32:59;;;;;;;6.93;6.22;;;;;;;23.37;64.50;100884.19;6213027;28;20233;-64
2021/07/01 10:36:21;;;;;;;6.60;6.00;;;;;;;23.89;62.84;100877.44;6194651;28;20225;-65
2021/07/01 10:39:42;;;;;;;5.28;4.80;;;;;;;23.89;61.14;100874.78;6202475;28;20229;-64
2021/07/01 10:43:05;;;;;;;10.32;6.05;;;;;;;23.23;62.95;100885.03;6195813;28;20328;-62
2021/07/01 10:46:37;;;;;;;5.20;4.68;;;;;;;23.38;62.25;100881.44;6208373;28;20237;-64
2021/07/01 10:50:00;;;;;;;9.38;5.97;;;;;;;23.54;61.81;100888.47;6188255;28;20233;-65
2021/07/01 10:53:30;;;;;;;6.70;5.75;;;;;;;23.61;60.90;100892.41;6215406;28;20634;-63
2021/07/01 10:56:55;;;;;;;7.55;6.95;;;;;;;24.06;60.07;100884.31;6207234;28;20588;-64
2021/07/01 11:00:16;;;;;;;9.30;8.43;;;;;;;23.95;60.56;100880.53;6207215;28;20233;-64
2021/07/01 11:03:37;;;;;;;7.78;7.05;;;;;;;24.07;60.00;100878.88;6195845;28;20554;-64
2021/07/01 11:07:03;;;;;;;6.72;6.00;;;;;;;24.19;59.67;100877.22;6177091;28;22146;-63
2021/07/01 11:10:33;;;;;;;5.78;4.75;;;;;;;24.29;59.63;100883.69;6197983;28;20233;-65
2021/07/01 11:13:55;;;;;;;5.07;4.63;;;;;;;24.34;58.67;100878.03;6199803;28;20232;-62
2021/07/01 11:17:17;;;;;;;4.75;4.38;;;;;;;24.17;58.12;100881.81;6185796;28;20666;-64
2021/07/01 11:20:38;;;;;;;5.50;4.40;;;;;;;24.35;57.83;100896.59;6172489;28;20277;-65
2021/07/01 11:24:16;;;;;;;4.43;4.00;;;;;;;24.09;58.87;100895.59;6193642;28;20771;-65
2021/07/01 11:27:37;;;;;;;4.85;4.45;;;;;;;24.03;58.90;100890.69;6211205;28;20268;-65
2021/07/01 11:31:00;;;;;;;5.70;4.80;;;;;;;23.90;58.93;100897.75;6203496;28;20959;-65
2021/07/01 11:34:21;;;;;;;4.85;4.47;;;;;;;24.26;58.09;100891.84;6203604;28;20213;-65
2021/07/01 11:37:44;;;;;;;6.13;4.38;;;;;;;24.56;57.16;100883.69;6214044;28;20709;-65
2021/07/01 11:41:06;;;;;;;5.32;4.93;;;;;;;25.09;55.67;100885.47;6208085;28;20232;-66
2021/07/01 11:44:28;;;;;;;5.55;4.80;;;;;;;25.21;56.17;100897.09;6204012;28;20229;-65
2021/07/01 11:47:51;;;;;;;4.20;3.72;;;;;;;25.44;54.62;100898.19;6203357;28;20233;-65
2021/07/01 11:51:12;;;;;;;4.43;4.03;;;;;;;25.73;54.17;100896.97;6212758;28;20233;-65
2021/07/01 11:54:34;;;;;;;5.00;4.60;;;;;;;25.52;53.79;100893.16;6200871;28;20229;-66
2021/07/01 11:57:57;;;;;;;4.78;4.15;;;;;;;25.76;53.03;100895.03;6200799;28;20229;-64
2021/07/01 12:01:18;;;;;;;5.03;4.47;;;;;;;25.97;52.47;100903.34;6207704;28;20229;-67
2021/07/01 12:04:40;;;;;;;4.40;4.00;;;;;;;25.78;53.02;100899.28;6206676;28;20233;-65
2021/07/01 12:08:04;;;;;;;5.13;4.63;;;;;;;26.36;52.14;100902.22;6196341;28;20234;-63
2021/07/01 12:11:25;;;;;;;5.63;5.13;;;;;;;26.40;50.30;100893.00;6196354;28;20221;-62
2021/07/01 12:14:49;;;;;;;4.20;3.67;;;;;;;25.82;51.90;100897.25;6211615;28;20233;-63
2021/07/01 12:18:15;;;;;;;4.47;4.13;;;;;;;26.13;51.42;100893.22;6207268;28;20233;-63
2021/07/01 12:21:37;;;;;;;3.78;3.42;;;;;;;25.54;52.69;100896.56;6209473;28;20218;-64
2021/07/01 12:24:58;;;;;;;3.80;3.22;;;;;;;24.78;55.08;100908.88;6216755;28;20284;-64
2021/07/01 12:28:23;;;;;;;4.13;3.83;;;;;;;24.77;56.29;100907.16;6209745;28;20237;-65
2021/07/01 12:31:46;;;;;;;6.75;4.75;;;;;;;24.80;56.26;100914.94;6216130;28;20331;-65
2021/07/01 12:35:40;;;;;;;4.60;4.20;;;;;;;24.80;55.88;100906.97;6213981;28;20233;-64
2021/07/01 12:39:20;;;;;;;5.82;5.43;;;;;;;24.53;56.83;100913.16;6213018;28;20237;-64
2021/07/01 12:42:42;;;;;;;6.63;6.10;;;;;;;24.28;57.50;100921.03;6209564;28;20240;-64
2021/07/01 12:46:03;;;;;;;4.72;4.32;;;;;;;24.07;58.99;100926.78;6220478;28;20241;-64
2021/07/01 12:50:04;;;;;;;5.38;4.90;;;;;;;23.76;60.23;100925.16;6211196;28;20228;-65
2021/07/01 12:53:32;;;;;;;5.45;4.95;;;;;;;23.45;60.49;100926.22;6212448;28;20237;-64
2021/07/01 12:57:03;;;;;;;4.70;4.40;;;;;;;23.46;60.82;100938.56;6204236;28;20319;-64
2021/07/01 13:00:24;;;;;;;5.85;5.45;;;;;;;22.95;63.57;100926.50;6204279;28;20233;-64
2021/07/01 13:03:45;;;;;;;5.72;4.95;;;;;;;22.93;62.33;100925.72;6211154;28;20225;-65
2021/07/01 13:07:08;;;;;;;5.43;4.97;;;;;;;23.16;62.48;100932.34;6211660;28;20248;-64
2021/07/01 13:10:31;;;;;;;5.45;4.95;;;;;;;23.12;63.57;100937.94;6211249;28;20233;-64
2021/07/01 13:13:57;;;;;;;6.90;6.47;;;;;;;23.55;62.40;100938.00;6181519;28;20229;-62
2021/07/01 13:17:19;;;;;;;5.78;5.25;;;;;;;23.74;61.77;100941.22;6206276;28;20229;-63
2021/07/01 13:20:40;;;;;;;7.93;7.13;;;;;;;23.89;61.35;100938.59;6187601;28;20237;-62
2021/07/01 13:24:04;;;;;;;7.07;6.57;;;;;;;23.72;61.54;100945.78;6209713;28;20229;-64
2021/07/01 13:27:42;;;;;;;6.05;5.53;;;;;;;23.58;61.68;100932.50;6208550;28;20229;-64
2021/07/01 13:31:04;;;;;;;7.03;5.28;;;;;;;23.10;63.58;100942.50;6197963;28;20280;-66
2021/07/01 13:34:28;;;;;;;8.45;6.35;;;;;;;23.14;63.44;100949.34;6211777;28;20678;-63
2021/07/01 13:37:52;;;;;;;6.32;5.80;;;;;;;23.66;61.27;100943.50;6206376;28;20225;-64
2021/07/01 13:41:12;;;;;;;4.95;4.35;;;;;;;23.64;60.76;100948.06;6213768;28;20237;-63
2021/07/01 13:44:35;;;;;;;19.05;17.55;;;;;;;23.80;60.13;100953.31;6208945;28;20237;-62
2021/07/01 13:47:58;;;;;;;6.55;5.95;;;;;;;23.94;59.90;100948.00;6202463;28;20237;-64
2021/07/01 13:51:27;;;;;;;5.90;5.38;;;;;;;23.16;61.61;100950.09;6203652;28;20630;-64
2021/07/01 13:54:53;;;;;;;6.55;5.88;;;;;;;22.86;63.96;100948.28;6207899;28;20233;-63
2021/07/01 13:58:17;;;;;;;5.80;5.20;;;;;;;22.79;64.37;100957.53;6203356;28;20229;-64
2021/07/01 14:01:39;;;;;;;5.72;5.28;;;;;;;23.07;62.80;100963.91;6212174;28;20229;-63
2021/07/01 14:05:00;;;;;;;9.73;5.32;;;;;;;23.04;63.47;100956.16;6201351;28;20222;-61
2021/07/01 14:08:24;;;;;;;9.10;5.38;;;;;;;22.74;64.80;100956.94;6204738;28;20233;-63
2021/07/01 14:11:47;;;;;;;6.65;6.05;;;;;;;22.77;65.88;100964.75;6202403;28;20233;-65
2021/07/01 14:15:11;;;;;;;7.88;6.60;;;;;;;22.60;67.14;100960.41;6202049;28;20233;-65
2021/07/01 14:18:35;;;;;;;6.07;5.40;;;;;;;23.25;64.36;100973.47;6211182;28;20274;-63
2021/07/01 14:22:04;;;;;;;4.97;4.57;;;;;;;23.43;64.10;100986.59;6204003;28;20236;-64
2021/07/01 14:25:29;;;;;;;5.88;5.38;;;;;;;22.86;66.36;100993.41;6209059;28;20237;-63
2021/07/01 14:28:59;;;;;;;4.30;3.90;;;;;;;22.80;64.97;100977.84;6202415;28;20261;-65
2021/07/01 14:32:32;;;;;;;4.88;4.47;;;;;;;23.11;63.88;100987.56;6207950;28;20466;-62
2021/07/01 14:36:04;;;;;;;5.10;4.50;;;;;;;23.14;63.41;100974.09;6203574;28;20233;-48
2021/07/01 14:39:26;;;;;;;5.35;4.85;;;;;;;22.81;65.47;100972.44;6197220;28;20617;-47
2021/07/01 14:43:00;;;;;;;4.93;4.07;;;;;;;22.96;64.96;100973.34;6205407;28;20816;-49
2021/07/01 14:46:26;;;;;;;4.00;3.70;;;;;;;22.66;65.45;100975.13;6189462;28;20232;-49
2021/07/01 14:49:48;;;;;;;4.38;3.97;;;;;;;22.75;65.30;100980.75;6200986;28;20236;-48
2021/07/01 14:56:45;;;;;;;3.60;3.30;;;;;;;23.26;63.43;100985.78;6283397;27;20882;-49
2021/07/01 15:00:08;;;;;;;4.88;3.78;;;;;;;23.33;62.95;100997.75;6298259;28;20322;-53
2021/07/01 15:03:29;;;;;;;4.63;4.05;;;;;;;23.32;63.38;101006.69;6280034;28;20223;-51
2021/07/01 15:06:58;;;;;;;4.13;3.80;;;;;;;23.55;61.91;101002.66;6284785;28;20223;-53
2021/07/01 15:10:20;;;;;;;5.05;3.55;;;;;;;23.68;61.23;101004.56;6273705;28;20773;-47
2021/07/01 15:13:42;;;;;;;5.13;4.70;;;;;;;23.70;62.15;101008.81;6260590;28;20259;-51
2021/07/01 15:17:13;;;;;;;6.10;5.65;;;;;;;23.91;61.16;101005.84;6282025;28;20243;-50
2021/07/01 15:20:35;;;;;;;6.63;5.93;;;;;;;24.02;60.81;101016.66;6268610;28;20258;-52
2021/07/01 15:23:57;;;;;;;5.18;4.78;;;;;;;24.04;61.03;101008.56;6281015;28;20234;-51
2021/07/01 15:27:19;;;;;;;6.05;5.10;;;;;;;23.98;60.24;101016.00;6275893;28;20215;-50
2021/07/01 15:30:41;;;;;;;6.47;5.05;;;;;;;23.69;60.69;101015.09;6282669;28;20514;-54
2021/07/01 15:34:01;;;;;;;5.00;4.60;;;;;;;23.39;61.33;101021.31;6275284;28;20235;-50
2021/07/01 15:37:23;;;;;;;5.25;4.22;;;;;;;23.16;61.71;101021.81;6276855;28;20227;-51
2021/07/01 15:40:43;;;;;;;5.35;4.65;;;;;;;23.25;62.04;101036.38;6268402;28;20227;-50
2021/07/01 15:44:05;;;;;;;5.78;5.18;;;;;;;23.20;62.92;101036.63;6271100;28;20443;-49
2021/07/01 15:47:27;;;;;;;4.05;3.75;;;;;;;23.27;61.38;101045.97;6260543;28;20239;-48
2021/07/01 15:50:48;;;;;;;6.20;4.40;;;;;;;23.31;61.20;101041.31;6282066;28;20239;-49
2021/07/01 15:54:09;;;;;;;8.02;6.05;;;;;;;23.10;62.56;101038.97;6267057;28;20224;-49